Hagerstown Regional Richard A Henson Field Hagerstown US
ICAO: KHGR
IATA: HGR
Category: Medium
Scheduled Services: No

Elevation: 703 ft
TransAlt. 18000 ft.

Airport Communications:
ASOS:126.375
WASHINGTON CNTR:134.15
CTAF:120.3
GND:121.9
AR OPS:32.3
LEESBURG RDO:109.8
TWR:120.3
UNICOM:122.95

KHGR Zoom In..

Runways:

(A) RW 02 length 3165 ft width 100 ft
---- / hdg 26

(B) RW 09 length 7000 ft width 150 ft
ILS 111.90 / hdg 92

(C) RW 20 length 3165 ft width 100 ft
---- / hdg 206

(D) RW 27 length 7000 ft width 150 ft
ILS 111.90 / hdg 272

Location; KHGR
Day. 19 / Time. 20.53 Zulu
* Altimeter: 30.00
* Temperature: 07° c. 44.6°f.
* Wind from: 300° Speed 20 kn with Gusts up to 30 kn.
Dewpoint: -03° c.
Visibility: 10 Statute Miles.
Clouds: Overcast 4400 ft.

KHGR 192053Z 30020G30KT 10SM OVC044 07/M03 A3000 RMK AO2 PK WND 33034/2013 SLP173 T00721028 53039


Wind From 300°
Speed 20 kn.

  YouTube Music Video
 
jpsmedia.com for Web Design  worldairports.se 2018   terms of use